Terminal Aerodrome Forecast
Issued by NWS

Home | Current Version | Previous Version | Text Only | Print | Product List | Glossary On
Versions: 1 2 3 4 5 6 7 8 9 10 11 12 13 14 15 16 17 18 19 20 21 22 23 24 25
806
FTUS46 KSEW 200523
TAFSEA
TAF
KSEA 200523Z 2006/2112 VRB04KT P6SM FEW060 OVC200
     FM200800 VRB04KT P6SM SCT050 OVC150
     FM201800 21006KT P6SM FEW050 BKN120 OVC200
     FM210400 23007KT P6SM SCT050 OVC100=

USA.gov is the U.S. government's official web portal to all federal, state and local government web resources and services.